createdAt,value
2022-12-20T00:01:00.952Z,0.85
2022-12-20T00:03:27.501Z,1.63
2022-12-20T00:05:54.762Z,1.20
2022-12-20T00:08:21.312Z,1.40
2022-12-20T00:10:47.873Z,1.67
2022-12-20T00:13:14.499Z,1.80
2022-12-20T00:15:41.111Z,0.90
2022-12-20T00:18:07.717Z,1.45
2022-12-20T00:20:35.254Z,1.15
2022-12-20T00:23:02.455Z,1.80
2022-12-20T00:25:29.251Z,1.40
2022-12-20T00:27:55.906Z,1.00
2022-12-20T00:30:22.682Z,1.48
2022-12-20T00:32:50.011Z,1.20
2022-12-20T00:35:16.577Z,1.50
2022-12-20T00:37:43.232Z,1.38
2022-12-20T00:40:09.952Z,1.10
2022-12-20T00:42:36.554Z,1.08
2022-12-20T00:45:05.087Z,1.00
2022-12-20T00:47:31.725Z,1.13
2022-12-20T00:49:58.259Z,0.93
2022-12-20T00:52:25.041Z,1.23
2022-12-20T00:54:51.541Z,1.15
2022-12-20T00:57:18.105Z,0.93
2022-12-20T00:59:44.721Z,1.23
2022-12-20T01:02:11.695Z,1.42
2022-12-20T01:04:38.344Z,1.00
2022-12-20T01:07:04.960Z,0.93
2022-12-20T01:09:32.072Z,1.08
2022-12-20T01:11:58.702Z,1.55
2022-12-20T01:14:25.333Z,0.73
2022-12-20T01:16:51.940Z,1.13
2022-12-20T01:19:19.635Z,1.10
2022-12-20T01:21:46.511Z,1.20
2022-12-20T01:24:15.523Z,0.90
2022-12-20T01:26:42.681Z,0.82
2022-12-20T01:29:09.564Z,1.10
2022-12-20T01:31:36.280Z,1.00
2022-12-20T01:34:03.579Z,1.27
2022-12-20T01:36:33.423Z,0.88
2022-12-20T01:39:13.275Z,1.20
2022-12-20T01:41:41.227Z,1.10
2022-12-20T01:44:16.902Z,1.45
2022-12-20T01:46:45.198Z,1.23
2022-12-20T01:49:23.049Z,1.02
2022-12-20T01:52:23.803Z,0.95
2022-12-20T01:55:13.000Z,1.10
2022-12-20T01:57:45.692Z,1.13
2022-12-20T02:00:13.430Z,1.08
2022-12-20T02:02:45.822Z,1.02
2022-12-20T02:05:14.554Z,1.50
2022-12-20T02:07:48.203Z,1.00
2022-12-20T02:10:17.245Z,1.77
2022-12-20T02:12:45.956Z,1.00
2022-12-20T02:15:38.477Z,1.17
2022-12-20T02:18:22.279Z,0.93
2022-12-20T02:21:01.348Z,0.75
2022-12-20T02:24:05.763Z,1.40
2022-12-20T02:27:11.721Z,1.02
2022-12-20T02:30:02.120Z,0.90
2022-12-20T02:32:46.262Z,1.13
2022-12-20T02:35:15.179Z,1.00
2022-12-20T02:38:28.324Z,1.00
2022-12-20T02:41:13.479Z,1.17
2022-12-20T02:44:01.763Z,0.90
2022-12-20T02:46:29.287Z,1.08
2022-12-20T02:49:00.656Z,1.27
2022-12-20T02:51:30.151Z,1.05
2022-12-20T02:53:58.872Z,1.30
2022-12-20T02:56:35.358Z,1.30
2022-12-20T02:59:16.858Z,0.93
2022-12-20T03:01:48.485Z,1.33
2022-12-20T03:04:17.559Z,1.25
2022-12-20T03:06:57.125Z,1.02
2022-12-20T03:09:23.803Z,0.98
2022-12-20T03:11:51.120Z,1.15
2022-12-20T03:14:17.725Z,1.80
2022-12-20T03:16:46.052Z,1.30
2022-12-20T03:19:12.672Z,1.42
2022-12-20T03:21:39.188Z,1.23
2022-12-20T03:24:06.384Z,1.40
2022-12-20T03:26:33.003Z,1.20
2022-12-20T03:29:00.752Z,1.48
2022-12-20T03:31:28.193Z,1.38
2022-12-20T03:33:55.678Z,0.90
2022-12-20T03:36:24.014Z,1.10
2022-12-20T03:38:55.736Z,1.30
2022-12-20T03:41:24.761Z,1.33
2022-12-20T03:43:53.124Z,1.45
2022-12-20T03:46:21.103Z,1.27
2022-12-20T03:48:47.769Z,1.85
2022-12-20T03:51:14.355Z,1.73
2022-12-20T03:53:40.946Z,1.95
2022-12-20T03:56:07.960Z,1.08
2022-12-20T03:58:35.436Z,1.00
2022-12-20T04:01:02.304Z,1.40
2022-12-20T04:03:47.727Z,1.20
2022-12-20T04:06:14.864Z,1.40
2022-12-20T04:08:41.872Z,1.63
2022-12-20T04:11:16.045Z,1.45
2022-12-20T04:13:54.403Z,1.48
2022-12-20T04:16:27.609Z,1.38
2022-12-20T04:18:55.451Z,1.15
2022-12-20T04:21:25.451Z,1.38
2022-12-20T04:23:54.054Z,1.20
2022-12-20T04:26:21.189Z,1.23
2022-12-20T04:28:47.907Z,1.30
2022-12-20T04:31:19.932Z,1.20
2022-12-20T04:33:50.205Z,1.55
2022-12-20T04:36:16.856Z,1.13
2022-12-20T04:38:43.849Z,0.90
2022-12-20T04:41:21.935Z,2.20
2022-12-20T04:43:53.836Z,1.77
2022-12-20T04:46:23.183Z,1.17
2022-12-20T04:48:59.283Z,1.52
2022-12-20T04:51:28.004Z,1.58
2022-12-20T04:53:55.189Z,1.45
2022-12-20T04:56:32.984Z,1.85
2022-12-20T04:59:05.357Z,1.35
2022-12-20T05:01:32.056Z,1.13
2022-12-20T05:03:59.111Z,1.15
2022-12-20T05:06:29.798Z,1.50
2022-12-20T05:08:56.592Z,1.60
2022-12-20T05:11:23.303Z,1.50
2022-12-20T05:13:50.725Z,1.13
2022-12-20T05:16:19.844Z,1.60
2022-12-20T05:18:49.249Z,1.23
2022-12-20T05:21:35.569Z,1.45
2022-12-20T05:24:22.356Z,1.40
2022-12-20T05:27:05.716Z,1.13
2022-12-20T05:29:32.408Z,1.40
2022-12-20T05:31:59.018Z,1.38
2022-12-20T05:34:26.755Z,1.60
2022-12-20T05:36:55.196Z,1.50
2022-12-20T05:39:24.090Z,1.67
2022-12-20T05:41:53.868Z,1.55
2022-12-20T05:44:24.051Z,1.30
2022-12-20T05:46:54.691Z,1.15
2022-12-20T05:49:26.460Z,1.73
2022-12-20T05:51:54.078Z,1.42
2022-12-20T05:54:25.243Z,1.77
2022-12-20T05:57:00.101Z,1.00
2022-12-20T05:59:34.144Z,1.65
2022-12-20T06:02:02.982Z,1.40
2022-12-20T06:04:31.709Z,1.33
2022-12-20T06:06:59.775Z,1.20
2022-12-20T06:09:26.343Z,1.42
2022-12-20T06:11:59.888Z,1.40
2022-12-20T06:14:27.582Z,1.45
2022-12-20T06:16:55.912Z,1.10
2022-12-20T06:19:22.959Z,1.70
2022-12-20T06:21:53.057Z,1.35
2022-12-20T06:24:27.247Z,1.88
2022-12-20T06:26:54.210Z,1.05
2022-12-20T06:29:21.190Z,1.67
2022-12-20T06:31:54.828Z,1.35
2022-12-20T06:34:21.759Z,1.40
2022-12-20T06:36:48.555Z,1.55
2022-12-20T06:39:22.328Z,1.50
2022-12-20T06:41:56.340Z,1.38
2022-12-20T06:44:23.091Z,2.05
2022-12-20T06:46:50.924Z,1.73
2022-12-20T06:49:17.584Z,1.48
2022-12-20T06:51:44.226Z,1.63
2022-12-20T06:54:11.940Z,1.35
2022-12-20T06:56:41.578Z,1.48
2022-12-20T06:59:10.416Z,1.73
2022-12-20T07:01:37.073Z,2.00
2022-12-20T07:04:04.059Z,2.38
2022-12-20T07:06:30.665Z,1.40
2022-12-20T07:08:57.222Z,1.33
2022-12-20T07:11:23.768Z,1.30
2022-12-20T07:13:56.815Z,1.60
2022-12-20T07:16:23.697Z,1.17
2022-12-20T07:18:52.441Z,1.10
2022-12-20T07:21:20.103Z,1.40
2022-12-20T07:23:47.578Z,1.90
2022-12-20T07:26:15.237Z,1.30
2022-12-20T07:28:42.495Z,1.15
2022-12-20T07:31:09.350Z,1.38
2022-12-20T07:33:37.203Z,1.20
2022-12-20T07:36:06.892Z,1.38
2022-12-20T07:38:35.533Z,1.27
2022-12-20T07:41:10.944Z,0.90
2022-12-20T07:46:06.359Z,1.20
2022-12-20T07:48:33.472Z,1.63
2022-12-20T07:51:06.324Z,0.90
2022-12-20T07:53:37.118Z,1.13
2022-12-20T07:56:05.570Z,1.20
2022-12-20T07:58:35.330Z,1.17
2022-12-20T08:01:02.716Z,1.63
2022-12-20T08:03:35.957Z,0.85
2022-12-20T08:06:05.915Z,1.25
2022-12-20T08:08:34.345Z,1.10
2022-12-20T08:11:02.358Z,1.42
2022-12-20T08:13:29.243Z,0.88
2022-12-20T08:15:55.844Z,1.25
2022-12-20T08:18:22.342Z,1.10
2022-12-20T08:20:48.913Z,1.00
2022-12-20T08:23:15.666Z,1.17
2022-12-20T08:25:42.472Z,1.40
2022-12-20T08:28:09.591Z,1.10
2022-12-20T08:30:36.396Z,1.05
2022-12-20T08:33:02.977Z,1.05
2022-12-20T08:35:29.644Z,0.73
2022-12-20T08:37:56.727Z,1.42
2022-12-20T08:40:23.329Z,0.85
2022-12-20T08:42:49.934Z,1.00
2022-12-20T08:45:16.779Z,1.10
2022-12-20T08:47:43.299Z,0.80
2022-12-20T08:50:10.234Z,0.80
2022-12-20T08:52:36.799Z,1.35
2022-12-20T08:55:05.282Z,1.08
2022-12-20T08:57:32.266Z,1.17
2022-12-20T08:59:58.834Z,1.27
2022-12-20T09:02:26.187Z,1.42
2022-12-20T09:04:52.892Z,0.90
2022-12-20T09:07:19.359Z,1.02
2022-12-20T09:09:47.216Z,0.90
2022-12-20T09:12:13.774Z,1.08
2022-12-20T09:14:40.478Z,0.68
2022-12-20T09:17:06.996Z,1.08
2022-12-20T09:19:33.592Z,0.80
2022-12-20T09:22:00.163Z,1.23
2022-12-20T09:24:27.166Z,0.73
2022-12-20T09:26:53.710Z,1.00
2022-12-20T09:29:26.130Z,0.88
2022-12-20T09:31:55.096Z,1.30
2022-12-20T09:34:21.597Z,1.08
2022-12-20T09:36:48.185Z,1.27
2022-12-20T09:39:14.761Z,1.00
2022-12-20T09:41:43.943Z,1.02
2022-12-20T09:44:32.056Z,1.00
2022-12-20T09:47:24.552Z,0.90
2022-12-20T09:49:54.925Z,1.15
2022-12-20T09:52:39.947Z,1.00
2022-12-20T09:55:15.800Z,1.80
2022-12-20T09:58:03.835Z,0.75
2022-12-20T10:00:35.921Z,1.02
2022-12-20T10:03:10.006Z,1.00
2022-12-20T10:06:27.061Z,1.20
2022-12-20T10:09:00.482Z,1.10
2022-12-20T10:11:40.714Z,1.13
2022-12-20T10:14:41.725Z,1.17
2022-12-20T10:17:32.759Z,1.00
2022-12-20T10:20:21.504Z,1.00
2022-12-20T10:23:09.443Z,1.48
2022-12-20T10:25:36.193Z,0.88
2022-12-20T10:28:10.610Z,1.23
2022-12-20T10:30:37.197Z,0.80
2022-12-20T10:33:03.818Z,0.80
2022-12-20T10:35:38.817Z,1.30
2022-12-20T10:38:12.200Z,0.85
2022-12-20T10:43:28.428Z,1.33
2022-12-20T10:46:02.000Z,1.58
2022-12-20T10:48:30.429Z,1.05
2022-12-20T10:51:00.908Z,1.00
2022-12-20T10:53:28.684Z,0.90
2022-12-20T10:56:27.657Z,1.05
2022-12-20T10:59:21.172Z,0.90
2022-12-20T11:01:49.568Z,1.23
2022-12-20T11:04:35.306Z,0.93
2022-12-20T11:07:16.958Z,1.52
2022-12-20T11:09:52.830Z,1.35
2022-12-20T11:12:19.880Z,1.10
2022-12-20T11:14:47.497Z,1.20
2022-12-20T11:17:14.633Z,1.50
2022-12-20T11:19:59.588Z,0.70
2022-12-20T11:22:46.148Z,1.33
2022-12-20T11:25:31.408Z,1.20
2022-12-20T11:28:34.770Z,0.95
2022-12-20T11:31:20.113Z,0.90
2022-12-20T11:33:46.663Z,1.27
2022-12-20T11:36:31.249Z,1.10
2022-12-20T11:39:27.032Z,0.93
2022-12-20T11:42:45.122Z,1.00
2022-12-20T11:45:20.736Z,0.85
2022-12-20T11:48:09.690Z,0.82
2022-12-20T11:51:17.320Z,0.93
2022-12-20T11:53:50.764Z,1.00
2022-12-20T11:56:24.611Z,0.77
2022-12-20T11:58:55.932Z,1.13
2022-12-20T12:01:38.682Z,1.30
2022-12-20T12:04:08.265Z,1.20
2022-12-20T12:06:40.974Z,0.93
2022-12-20T12:09:19.384Z,1.42
2022-12-20T12:12:11.594Z,0.93
2022-12-20T12:15:00.136Z,1.25
2022-12-20T12:17:50.760Z,1.05
2022-12-20T12:20:28.885Z,0.93
2022-12-20T12:23:05.317Z,1.40
2022-12-20T12:25:31.945Z,1.30
2022-12-20T12:27:58.603Z,0.93
2022-12-20T12:30:28.878Z,1.10
2022-12-20T12:33:03.123Z,1.05
2022-12-20T12:35:39.020Z,1.25
2022-12-20T12:38:29.971Z,1.23
2022-12-20T12:41:14.869Z,1.00
2022-12-20T12:43:51.457Z,1.23
2022-12-20T12:46:27.532Z,2.08
2022-12-20T12:49:05.632Z,1.67
2022-12-20T12:51:35.693Z,1.23
2022-12-20T12:54:17.582Z,0.95
2022-12-20T12:56:47.084Z,1.08
2022-12-20T12:59:33.449Z,1.50
2022-12-20T13:02:06.034Z,0.90
2022-12-20T13:04:54.545Z,0.90
2022-12-20T13:07:43.296Z,1.08
2022-12-20T13:10:09.865Z,0.82
2022-12-20T13:12:36.496Z,0.98
2022-12-20T13:15:23.329Z,1.13
2022-12-20T13:18:11.577Z,1.50
2022-12-20T13:20:38.271Z,1.63
2022-12-20T13:23:07.776Z,0.95
2022-12-20T13:25:40.417Z,1.35
2022-12-20T13:28:19.047Z,0.75
2022-12-20T13:30:47.100Z,1.45
2022-12-20T13:33:20.407Z,1.27
2022-12-20T13:36:09.808Z,1.05
2022-12-20T13:38:45.178Z,1.10
2022-12-20T13:41:35.114Z,0.98
2022-12-20T13:44:14.075Z,1.23
2022-12-20T13:46:56.001Z,0.90
2022-12-20T13:49:27.475Z,1.38
2022-12-20T13:52:09.140Z,1.52
2022-12-20T13:54:40.727Z,1.48
2022-12-20T13:57:07.791Z,1.85
2022-12-20T13:59:34.462Z,1.33
2022-12-20T14:02:04.738Z,1.42
2022-12-20T14:04:42.451Z,1.15
2022-12-20T14:07:13.528Z,1.45
2022-12-20T14:09:45.017Z,1.40
2022-12-20T14:12:25.322Z,1.55
2022-12-20T14:14:54.862Z,1.50
2022-12-20T14:17:32.222Z,1.10
2022-12-20T14:20:12.399Z,1.25
2022-12-20T14:22:51.797Z,1.48
2022-12-20T14:25:28.803Z,1.80
2022-12-20T14:27:56.043Z,1.35
2022-12-20T14:30:41.581Z,1.33
2022-12-20T14:33:29.369Z,1.63
2022-12-20T14:35:56.110Z,1.60
2022-12-20T14:38:33.235Z,2.20
2022-12-20T14:40:59.976Z,1.83
2022-12-20T14:43:32.270Z,1.77
2022-12-20T14:46:17.027Z,1.92
2022-12-20T14:48:43.929Z,1.52
2022-12-20T14:51:10.789Z,1.80
2022-12-20T14:53:42.542Z,1.63
2022-12-20T14:56:17.537Z,1.50
2022-12-20T14:58:44.689Z,1.70
2022-12-20T15:01:31.110Z,1.30
2022-12-20T15:03:59.901Z,1.70
2022-12-20T15:06:44.499Z,1.77
2022-12-20T15:09:11.288Z,1.33
2022-12-20T15:11:38.758Z,1.80
2022-12-20T15:14:33.247Z,1.70
2022-12-20T15:17:01.300Z,1.10
2022-12-20T15:19:27.934Z,1.55
2022-12-20T15:21:54.769Z,1.40
2022-12-20T15:24:25.679Z,1.75
2022-12-20T15:26:52.813Z,1.08
2022-12-20T15:29:25.057Z,1.65
2022-12-20T15:32:19.826Z,1.63
2022-12-20T15:34:46.591Z,1.73
2022-12-20T15:37:18.292Z,1.55
2022-12-20T15:39:45.696Z,1.25
2022-12-20T15:42:16.526Z,2.22
2022-12-20T15:44:43.861Z,2.25
2022-12-20T15:47:13.564Z,1.70
2022-12-20T15:49:43.227Z,1.92
2022-12-20T15:52:22.767Z,1.80
2022-12-20T15:54:50.069Z,2.22
2022-12-20T15:57:16.682Z,2.08
2022-12-20T16:00:00.989Z,2.08
2022-12-20T16:02:30.627Z,1.52
2022-12-20T16:04:58.604Z,1.83
2022-12-20T16:07:25.402Z,1.85
2022-12-20T16:09:51.981Z,1.65
2022-12-20T16:12:23.221Z,1.70
2022-12-20T16:14:49.787Z,1.98
2022-12-20T16:31:52.490Z,2.10
2022-12-20T16:34:19.328Z,2.80
2022-12-20T16:36:46.502Z,2.15
2022-12-20T16:39:13.073Z,2.30
2022-12-20T16:41:41.034Z,2.50
2022-12-20T16:44:13.250Z,2.35
2022-12-20T16:46:39.868Z,1.83
2022-12-20T16:49:06.500Z,2.03
2022-12-20T16:51:42.738Z,2.65
2022-12-20T16:54:21.441Z,1.80
2022-12-20T16:56:55.949Z,2.22
2022-12-20T16:59:26.312Z,1.83
2022-12-20T17:01:55.468Z,1.85
2022-12-20T17:04:22.919Z,2.28
2022-12-20T17:06:49.915Z,2.15
2022-12-20T17:09:17.451Z,2.05
2022-12-20T17:11:45.017Z,2.15
2022-12-20T17:14:13.330Z,2.55
2022-12-20T17:16:41.088Z,1.85
2022-12-20T17:19:08.866Z,2.88
2022-12-20T17:24:23.429Z,2.53
2022-12-20T17:26:49.990Z,2.50
2022-12-20T17:29:17.717Z,1.85
2022-12-20T17:31:46.484Z,2.65
2022-12-20T17:34:18.780Z,1.67
2022-12-20T17:36:48.846Z,1.95
2022-12-20T17:39:16.239Z,2.05
2022-12-20T17:41:43.887Z,2.50
2022-12-20T17:44:23.453Z,2.03
2022-12-20T17:46:50.585Z,1.73
2022-12-20T17:49:17.133Z,2.10
2022-12-20T17:51:44.019Z,1.73
2022-12-20T17:54:18.447Z,1.90
2022-12-20T17:56:45.792Z,1.92
2022-12-20T17:59:13.649Z,1.85
2022-12-20T18:01:41.254Z,1.88
2022-12-20T18:04:09.927Z,1.83
2022-12-20T18:06:38.571Z,2.28
2022-12-20T18:09:10.128Z,2.05
2022-12-20T18:11:36.644Z,1.83
2022-12-20T18:14:03.542Z,2.45
2022-12-20T18:16:31.961Z,1.65
2022-12-20T18:18:58.856Z,2.78
2022-12-20T18:21:26.759Z,2.58
2022-12-20T18:23:54.451Z,2.50
2022-12-20T18:26:22.352Z,2.60
2022-12-20T18:28:53.660Z,2.58
2022-12-20T18:31:22.868Z,2.70
2022-12-20T18:33:55.581Z,1.95
2022-12-20T18:36:36.288Z,2.20
2022-12-20T18:39:05.830Z,1.83
2022-12-20T18:41:32.374Z,2.17
2022-12-20T18:44:04.125Z,2.00
2022-12-20T18:46:31.116Z,2.75
2022-12-20T18:49:00.136Z,2.20
2022-12-20T18:51:32.902Z,2.05
2022-12-20T18:54:00.699Z,1.98
2022-12-20T18:56:30.772Z,2.17
2022-12-20T18:59:04.631Z,1.85
2022-12-20T19:01:37.191Z,2.33
2022-12-20T19:04:05.858Z,1.98
2022-12-20T19:06:33.000Z,2.22
2022-12-20T19:09:00.515Z,2.65
2022-12-20T19:11:27.172Z,2.50
2022-12-20T19:13:53.736Z,2.60
2022-12-20T19:16:23.463Z,2.60
2022-12-20T19:18:51.010Z,2.60
2022-12-20T19:21:24.025Z,2.33
2022-12-20T19:23:54.427Z,2.67
2022-12-20T19:26:22.918Z,2.35
2022-12-20T19:28:50.071Z,2.42
2022-12-20T19:31:25.245Z,3.13
2022-12-20T19:33:54.457Z,2.22
2022-12-20T19:36:24.933Z,2.55
2022-12-20T19:38:58.157Z,2.28
2022-12-20T19:41:27.521Z,2.05
2022-12-20T19:43:54.119Z,2.53
2022-12-20T19:46:27.935Z,2.10
2022-12-20T19:48:55.738Z,2.72
2022-12-20T19:51:22.549Z,2.00
2022-12-20T19:53:51.552Z,2.38
2022-12-20T19:56:21.417Z,2.63
2022-12-20T19:58:48.481Z,2.65
2022-12-20T20:01:15.996Z,2.63
2022-12-20T20:03:42.694Z,2.65
2022-12-20T20:06:09.998Z,2.85
2022-12-20T20:08:36.563Z,2.53
2022-12-20T20:11:09.468Z,2.35
2022-12-20T20:13:37.558Z,3.08
2022-12-20T20:16:05.607Z,3.50
2022-12-20T20:18:37.004Z,3.13
2022-12-20T20:21:08.850Z,2.33
2022-12-20T20:23:37.067Z,2.35
2022-12-20T20:26:07.023Z,2.58
2022-12-20T20:28:40.152Z,2.88
2022-12-20T20:31:11.624Z,2.40
2022-12-20T20:33:38.432Z,2.90
2022-12-20T20:36:05.413Z,2.88
2022-12-20T20:38:32.960Z,2.40
2022-12-20T20:40:59.593Z,2.65
2022-12-20T20:43:26.316Z,2.65
2022-12-20T20:45:53.172Z,3.00
2022-12-20T20:48:19.754Z,3.17
2022-12-20T20:50:46.609Z,3.72
2022-12-20T20:53:13.929Z,3.70
2022-12-20T20:55:40.875Z,2.95
2022-12-20T20:58:07.418Z,2.60
2022-12-20T21:00:34.184Z,3.53
2022-12-20T21:03:00.929Z,3.13
2022-12-20T21:08:15.484Z,3.92
2022-12-20T21:10:43.009Z,3.28
2022-12-20T21:13:09.649Z,3.88
2022-12-20T21:15:36.245Z,3.30
2022-12-20T21:18:03.077Z,3.55
2022-12-20T21:20:29.690Z,3.33
2022-12-20T21:22:57.205Z,2.97
2022-12-20T21:25:23.822Z,3.80
2022-12-20T21:27:50.330Z,3.13
2022-12-20T21:30:17.434Z,4.03
2022-12-20T21:32:44.017Z,4.18
2022-12-20T21:35:11.197Z,4.07
2022-12-20T21:37:37.737Z,3.72
2022-12-20T21:40:04.752Z,3.63
2022-12-20T21:42:32.045Z,3.80
2022-12-20T21:44:58.603Z,4.10
2022-12-20T21:47:25.325Z,3.60
2022-12-20T21:49:51.817Z,3.65
2022-12-20T21:52:18.398Z,4.25
2022-12-20T21:54:44.961Z,3.55
2022-12-20T21:57:11.550Z,4.20
2022-12-20T21:59:38.291Z,3.97
2022-12-20T22:02:05.846Z,3.95
2022-12-20T22:04:33.112Z,4.45
2022-12-20T22:06:59.640Z,3.97
2022-12-20T22:09:26.324Z,4.10
2022-12-20T22:11:52.806Z,3.92
2022-12-20T22:14:19.335Z,3.92
2022-12-20T22:16:46.050Z,3.70
2022-12-20T22:19:14.592Z,3.97
2022-12-20T22:21:41.485Z,4.53
2022-12-20T22:24:08.835Z,4.03
2022-12-20T22:26:36.749Z,4.03
2022-12-20T22:29:05.793Z,3.50
2022-12-20T22:31:33.205Z,4.15
2022-12-20T22:34:00.268Z,3.72
2022-12-20T22:36:27.726Z,3.78
2022-12-20T22:38:56.419Z,3.55
2022-12-20T22:41:32.552Z,3.85
2022-12-20T22:43:59.995Z,3.28
2022-12-20T22:46:29.213Z,4.15
2022-12-20T22:48:57.056Z,5.03
2022-12-20T22:51:26.978Z,4.40
2022-12-20T22:53:56.530Z,5.47
2022-12-20T22:56:23.212Z,4.95
2022-12-20T22:58:50.011Z,5.05
2022-12-20T23:01:19.471Z,5.25
2022-12-20T23:03:47.328Z,6.32
2022-12-20T23:06:17.314Z,5.93
2022-12-20T23:08:43.989Z,5.93
2022-12-20T23:11:33.945Z,5.47
2022-12-20T23:14:19.257Z,4.65
2022-12-20T23:16:45.906Z,6.15
2022-12-20T23:19:12.763Z,6.07
2022-12-20T23:21:58.007Z,5.97
2022-12-20T23:24:24.631Z,5.88
2022-12-20T23:26:51.130Z,5.35
2022-12-20T23:29:17.743Z,4.80
2022-12-20T23:31:44.278Z,5.65
2022-12-20T23:34:11.142Z,5.47
2022-12-20T23:36:37.699Z,5.53
2022-12-20T23:39:04.935Z,5.75
2022-12-20T23:41:32.163Z,4.88
2022-12-20T23:43:58.925Z,5.35
2022-12-20T23:46:25.876Z,5.03
2022-12-20T23:48:53.540Z,5.43
2022-12-20T23:51:20.987Z,5.70
2022-12-20T23:53:50.155Z,5.70
2022-12-20T23:56:19.997Z,5.47
2022-12-20T23:58:51.259Z,4.90
